sensor_id;sensor_type;location;lat;lon;timestamp;P1;durP1;ratioP1;P2;durP2;ratioP2
68108;SDS011;54893;49.864;19.084;2022-07-30T00:03:59;15.97;;;10.27;;
68108;SDS011;54893;49.864;19.084;2022-07-30T00:08:59;15.90;;;9.90;;
68108;SDS011;54893;49.864;19.084;2022-07-30T00:13:59;15.53;;;10.10;;
68108;SDS011;54893;49.864;19.084;2022-07-30T00:19:00;17.10;;;9.43;;
68108;SDS011;54893;49.864;19.084;2022-07-30T00:24:01;14.93;;;9.48;;
68108;SDS011;54893;49.864;19.084;2022-07-30T00:29:02;16.38;;;10.57;;
68108;SDS011;54893;49.864;19.084;2022-07-30T00:34:03;18.03;;;10.30;;
68108;SDS011;54893;49.864;19.084;2022-07-30T00:39:04;15.20;;;9.50;;
68108;SDS011;54893;49.864;19.084;2022-07-30T00:44:05;14.60;;;9.20;;
68108;SDS011;54893;49.864;19.084;2022-07-30T00:49:05;16.43;;;10.13;;
68108;SDS011;54893;49.864;19.084;2022-07-30T00:54:05;15.45;;;9.85;;
68108;SDS011;54893;49.864;19.084;2022-07-30T00:59:06;14.00;;;10.13;;
68108;SDS011;54893;49.864;19.084;2022-07-30T01:04:07;17.38;;;10.48;;
68108;SDS011;54893;49.864;19.084;2022-07-30T01:09:10;16.93;;;10.40;;
68108;SDS011;54893;49.864;19.084;2022-07-30T01:14:10;16.30;;;10.53;;
68108;SDS011;54893;49.864;19.084;2022-07-30T01:19:30;17.73;;;10.50;;
68108;SDS011;54893;49.864;19.084;2022-07-30T01:25:08;17.67;;;10.32;;
68108;SDS011;54893;49.864;19.084;2022-07-30T01:30:29;14.57;;;9.43;;
68108;SDS011;54893;49.864;19.084;2022-07-30T01:35:32;18.35;;;9.27;;
68108;SDS011;54893;49.864;19.084;2022-07-30T01:40:33;16.93;;;10.90;;
68108;SDS011;54893;49.864;19.084;2022-07-30T01:45:36;16.48;;;10.40;;
68108;SDS011;54893;49.864;19.084;2022-07-30T01:50:37;17.58;;;10.27;;
68108;SDS011;54893;49.864;19.084;2022-07-30T01:55:41;15.07;;;10.10;;
68108;SDS011;54893;49.864;19.084;2022-07-30T02:00:43;16.70;;;10.48;;
68108;SDS011;54893;49.864;19.084;2022-07-30T02:05:59;18.07;;;10.87;;
68108;SDS011;54893;49.864;19.084;2022-07-30T02:11:03;18.75;;;11.93;;
68108;SDS011;54893;49.864;19.084;2022-07-30T02:16:12;21.20;;;13.43;;
68108;SDS011;54893;49.864;19.084;2022-07-30T02:21:17;24.23;;;12.82;;
68108;SDS011;54893;49.864;19.084;2022-07-30T02:26:20;20.58;;;12.63;;
68108;SDS011;54893;49.864;19.084;2022-07-30T02:31:23;20.60;;;11.63;;
68108;SDS011;54893;49.864;19.084;2022-07-30T02:36:26;20.13;;;12.48;;
68108;SDS011;54893;49.864;19.084;2022-07-30T02:41:28;22.20;;;12.93;;
68108;SDS011;54893;49.864;19.084;2022-07-30T02:46:30;19.38;;;11.65;;
68108;SDS011;54893;49.864;19.084;2022-07-30T02:51:31;18.73;;;12.00;;
68108;SDS011;54893;49.864;19.084;2022-07-30T02:56:34;16.98;;;10.88;;
68108;SDS011;54893;49.864;19.084;2022-07-30T03:01:35;19.33;;;10.27;;
68108;SDS011;54893;49.864;19.084;2022-07-30T03:06:36;19.73;;;11.50;;
68108;SDS011;54893;49.864;19.084;2022-07-30T03:11:39;17.95;;;11.13;;
68108;SDS011;54893;49.864;19.084;2022-07-30T03:16:40;18.80;;;11.30;;
68108;SDS011;54893;49.864;19.084;2022-07-30T03:21:47;21.05;;;12.27;;
68108;SDS011;54893;49.864;19.084;2022-07-30T03:26:49;20.40;;;11.75;;
68108;SDS011;54893;49.864;19.084;2022-07-30T03:31:51;18.07;;;11.57;;
68108;SDS011;54893;49.864;19.084;2022-07-30T03:36:52;20.98;;;12.30;;
68108;SDS011;54893;49.864;19.084;2022-07-30T03:41:54;18.80;;;11.77;;
68108;SDS011;54893;49.864;19.084;2022-07-30T03:46:55;18.88;;;10.57;;
68108;SDS011;54893;49.864;19.084;2022-07-30T03:51:56;15.87;;;10.40;;
68108;SDS011;54893;49.864;19.084;2022-07-30T03:56:58;17.48;;;10.00;;
68108;SDS011;54893;49.864;19.084;2022-07-30T04:02:00;16.00;;;10.45;;
68108;SDS011;54893;49.864;19.084;2022-07-30T04:07:02;20.05;;;11.38;;
68108;SDS011;54893;49.864;19.084;2022-07-30T04:12:02;17.60;;;10.47;;
68108;SDS011;54893;49.864;19.084;2022-07-30T04:17:03;19.53;;;10.93;;
68108;SDS011;54893;49.864;19.084;2022-07-30T04:22:21;16.20;;;10.30;;
68108;SDS011;54893;49.864;19.084;2022-07-30T04:27:25;17.33;;;10.40;;
68108;SDS011;54893;49.864;19.084;2022-07-30T04:32:26;20.25;;;11.50;;
68108;SDS011;54893;49.864;19.084;2022-07-30T04:37:27;17.43;;;10.47;;
68108;SDS011;54893;49.864;19.084;2022-07-30T04:42:27;18.35;;;11.57;;
68108;SDS011;54893;49.864;19.084;2022-07-30T04:47:28;19.67;;;12.40;;
68108;SDS011;54893;49.864;19.084;2022-07-30T04:52:29;18.70;;;12.20;;
68108;SDS011;54893;49.864;19.084;2022-07-30T04:57:30;22.70;;;11.48;;
68108;SDS011;54893;49.864;19.084;2022-07-30T05:02:30;22.02;;;12.52;;
68108;SDS011;54893;49.864;19.084;2022-07-30T05:07:34;19.65;;;12.10;;
68108;SDS011;54893;49.864;19.084;2022-07-30T05:12:37;18.97;;;11.73;;
68108;SDS011;54893;49.864;19.084;2022-07-30T05:17:37;20.30;;;12.95;;
68108;SDS011;54893;49.864;19.084;2022-07-30T05:22:38;26.37;;;16.40;;
68108;SDS011;54893;49.864;19.084;2022-07-30T05:27:38;25.13;;;14.63;;
68108;SDS011;54893;49.864;19.084;2022-07-30T05:32:39;23.33;;;14.50;;
68108;SDS011;54893;49.864;19.084;2022-07-30T05:37:39;24.10;;;14.27;;
68108;SDS011;54893;49.864;19.084;2022-07-30T05:42:39;22.63;;;13.50;;
68108;SDS011;54893;49.864;19.084;2022-07-30T05:47:40;21.57;;;13.47;;
68108;SDS011;54893;49.864;19.084;2022-07-30T05:52:40;21.57;;;14.27;;
68108;SDS011;54893;49.864;19.084;2022-07-30T05:57:40;25.33;;;13.10;;
68108;SDS011;54893;49.864;19.084;2022-07-30T06:02:41;19.17;;;11.77;;
68108;SDS011;54893;49.864;19.084;2022-07-30T06:07:41;21.63;;;13.13;;
68108;SDS011;54893;49.864;19.084;2022-07-30T06:12:42;19.40;;;12.57;;
68108;SDS011;54893;49.864;19.084;2022-07-30T06:17:43;18.17;;;12.43;;
68108;SDS011;54893;49.864;19.084;2022-07-30T06:22:44;20.27;;;12.05;;
68108;SDS011;54893;49.864;19.084;2022-07-30T06:27:44;16.95;;;11.35;;
68108;SDS011;54893;49.864;19.084;2022-07-30T06:32:44;17.57;;;10.47;;
68108;SDS011;54893;49.864;19.084;2022-07-30T06:37:46;16.90;;;10.20;;
68108;SDS011;54893;49.864;19.084;2022-07-30T06:42:46;17.33;;;10.13;;
68108;SDS011;54893;49.864;19.084;2022-07-30T06:47:46;15.63;;;9.70;;
68108;SDS011;54893;49.864;19.084;2022-07-30T06:52:47;13.80;;;9.60;;
68108;SDS011;54893;49.864;19.084;2022-07-30T06:57:47;15.23;;;8.93;;
68108;SDS011;54893;49.864;19.084;2022-07-30T07:02:48;12.97;;;8.30;;
68108;SDS011;54893;49.864;19.084;2022-07-30T07:07:48;12.53;;;8.93;;
68108;SDS011;54893;49.864;19.084;2022-07-30T07:12:48;13.87;;;8.90;;
68108;SDS011;54893;49.864;19.084;2022-07-30T07:17:49;12.33;;;8.30;;
68108;SDS011;54893;49.864;19.084;2022-07-30T07:22:49;13.40;;;8.30;;
68108;SDS011;54893;49.864;19.084;2022-07-30T07:27:50;11.10;;;8.27;;
68108;SDS011;54893;49.864;19.084;2022-07-30T07:32:50;13.83;;;8.63;;
68108;SDS011;54893;49.864;19.084;2022-07-30T07:37:50;11.67;;;7.90;;
68108;SDS011;54893;49.864;19.084;2022-07-30T07:42:51;13.70;;;7.97;;
68108;SDS011;54893;49.864;19.084;2022-07-30T07:47:52;13.83;;;8.20;;
68108;SDS011;54893;49.864;19.084;2022-07-30T07:52:52;12.83;;;7.97;;
68108;SDS011;54893;49.864;19.084;2022-07-30T07:57:52;14.57;;;8.00;;
68108;SDS011;54893;49.864;19.084;2022-07-30T08:02:53;11.80;;;8.20;;
68108;SDS011;54893;49.864;19.084;2022-07-30T08:07:53;13.60;;;8.40;;
68108;SDS011;54893;49.864;19.084;2022-07-30T08:12:54;14.63;;;8.60;;
68108;SDS011;54893;49.864;19.084;2022-07-30T08:17:54;12.80;;;8.37;;
68108;SDS011;54893;49.864;19.084;2022-07-30T08:22:54;12.60;;;8.27;;
68108;SDS011;54893;49.864;19.084;2022-07-30T08:27:55;14.63;;;8.40;;
68108;SDS011;54893;49.864;19.084;2022-07-30T08:32:55;12.17;;;8.23;;
68108;SDS011;54893;49.864;19.084;2022-07-30T08:37:55;14.30;;;7.93;;
68108;SDS011;54893;49.864;19.084;2022-07-30T08:42:56;11.70;;;7.63;;
68108;SDS011;54893;49.864;19.084;2022-07-30T08:47:58;11.93;;;8.30;;
68108;SDS011;54893;49.864;19.084;2022-07-30T08:53:01;13.37;;;8.57;;
68108;SDS011;54893;49.864;19.084;2022-07-30T08:58:03;11.55;;;8.55;;
68108;SDS011;54893;49.864;19.084;2022-07-30T09:03:05;13.33;;;8.97;;
68108;SDS011;54893;49.864;19.084;2022-07-30T09:08:05;12.43;;;8.90;;
68108;SDS011;54893;49.864;19.084;2022-07-30T09:13:06;13.93;;;9.53;;
68108;SDS011;54893;49.864;19.084;2022-07-30T09:23:56;12.38;;;8.30;;
68108;SDS011;54893;49.864;19.084;2022-07-30T09:29:19;10.90;;;8.13;;
68108;SDS011;54893;49.864;19.084;2022-07-30T09:39:40;12.00;;;9.10;;
68108;SDS011;54893;49.864;19.084;2022-07-30T09:44:41;12.57;;;8.57;;
68108;SDS011;54893;49.864;19.084;2022-07-30T09:49:42;13.02;;;9.30;;
68108;SDS011;54893;49.864;19.084;2022-07-30T09:54:46;11.60;;;8.50;;
68108;SDS011;54893;49.864;19.084;2022-07-30T09:59:48;11.27;;;8.57;;
68108;SDS011;54893;49.864;19.084;2022-07-30T10:04:49;12.27;;;8.67;;
68108;SDS011;54893;49.864;19.084;2022-07-30T10:09:49;12.33;;;7.80;;
68108;SDS011;54893;49.864;19.084;2022-07-30T10:14:52;12.82;;;8.95;;
68108;SDS011;54893;49.864;19.084;2022-07-30T10:19:53;11.75;;;9.77;;
68108;SDS011;54893;49.864;19.084;2022-07-30T10:24:53;12.00;;;10.10;;
68108;SDS011;54893;49.864;19.084;2022-07-30T10:29:54;11.73;;;8.37;;
68108;SDS011;54893;49.864;19.084;2022-07-30T10:34:56;10.50;;;8.80;;
68108;SDS011;54893;49.864;19.084;2022-07-30T10:50:25;8.93;;;7.07;;
68108;SDS011;54893;49.864;19.084;2022-07-30T10:55:26;9.70;;;7.27;;
68108;SDS011;54893;49.864;19.084;2022-07-30T11:00:30;10.40;;;7.28;;
68108;SDS011;54893;49.864;19.084;2022-07-30T11:05:44;12.17;;;8.33;;
68108;SDS011;54893;49.864;19.084;2022-07-30T11:10:46;14.20;;;10.18;;
68108;SDS011;54893;49.864;19.084;2022-07-30T11:15:53;13.67;;;9.33;;
68108;SDS011;54893;49.864;19.084;2022-07-30T11:31:45;23.35;;;16.33;;
68108;SDS011;54893;49.864;19.084;2022-07-30T11:47:26;47.35;;;28.92;;
68108;SDS011;54893;49.864;19.084;2022-07-30T11:52:27;44.13;;;27.73;;
68108;SDS011;54893;49.864;19.084;2022-07-30T11:57:40;38.40;;;24.65;;
68108;SDS011;54893;49.864;19.084;2022-07-30T12:02:41;25.77;;;18.20;;
68108;SDS011;54893;49.864;19.084;2022-07-30T12:07:41;25.90;;;16.97;;
68108;SDS011;54893;49.864;19.084;2022-07-30T12:12:42;25.07;;;15.03;;
68108;SDS011;54893;49.864;19.084;2022-07-30T12:17:44;24.77;;;15.48;;
68108;SDS011;54893;49.864;19.084;2022-07-30T12:22:45;29.48;;;21.13;;
68108;SDS011;54893;49.864;19.084;2022-07-30T12:27:46;34.33;;;24.67;;
68108;SDS011;54893;49.864;19.084;2022-07-30T12:32:48;35.45;;;22.15;;
68108;SDS011;54893;49.864;19.084;2022-07-30T12:38:01;35.40;;;23.27;;
68108;SDS011;54893;49.864;19.084;2022-07-30T12:43:03;33.63;;;21.98;;
68108;SDS011;54893;49.864;19.084;2022-07-30T12:48:08;26.50;;;19.15;;
68108;SDS011;54893;49.864;19.084;2022-07-30T12:53:09;30.13;;;22.25;;
68108;SDS011;54893;49.864;19.084;2022-07-30T12:58:09;32.40;;;19.90;;
68108;SDS011;54893;49.864;19.084;2022-07-30T13:03:22;32.50;;;21.10;;
68108;SDS011;54893;49.864;19.084;2022-07-30T13:08:47;32.90;;;21.85;;
68108;SDS011;54893;49.864;19.084;2022-07-30T13:13:48;36.07;;;21.93;;
68108;SDS011;54893;49.864;19.084;2022-07-30T13:18:49;37.42;;;26.75;;
68108;SDS011;54893;49.864;19.084;2022-07-30T13:23:49;35.53;;;24.00;;
68108;SDS011;54893;49.864;19.084;2022-07-30T13:28:50;37.60;;;23.87;;
68108;SDS011;54893;49.864;19.084;2022-07-30T13:33:50;35.67;;;22.80;;
68108;SDS011;54893;49.864;19.084;2022-07-30T13:38:52;37.20;;;22.52;;
68108;SDS011;54893;49.864;19.084;2022-07-30T13:43:52;34.50;;;22.67;;
68108;SDS011;54893;49.864;19.084;2022-07-30T13:48:53;28.93;;;20.23;;
68108;SDS011;54893;49.864;19.084;2022-07-30T13:53:53;31.13;;;20.17;;
68108;SDS011;54893;49.864;19.084;2022-07-30T13:58:54;33.57;;;20.93;;
68108;SDS011;54893;49.864;19.084;2022-07-30T14:03:54;24.57;;;18.30;;
68108;SDS011;54893;49.864;19.084;2022-07-30T14:08:54;21.27;;;14.67;;
68108;SDS011;54893;49.864;19.084;2022-07-30T14:13:55;18.40;;;12.60;;
68108;SDS011;54893;49.864;19.084;2022-07-30T14:18:55;13.93;;;10.30;;
68108;SDS011;54893;49.864;19.084;2022-07-30T14:23:56;14.13;;;8.80;;
68108;SDS011;54893;49.864;19.084;2022-07-30T14:28:56;13.17;;;9.50;;
68108;SDS011;54893;49.864;19.084;2022-07-30T14:33:57;13.83;;;8.77;;
68108;SDS011;54893;49.864;19.084;2022-07-30T14:38:58;14.17;;;9.17;;
68108;SDS011;54893;49.864;19.084;2022-07-30T14:43:59;15.68;;;10.98;;
68108;SDS011;54893;49.864;19.084;2022-07-30T14:48:59;15.13;;;9.80;;
68108;SDS011;54893;49.864;19.084;2022-07-30T14:53:59;18.13;;;9.97;;
68108;SDS011;54893;49.864;19.084;2022-07-30T14:59:00;18.83;;;12.17;;
68108;SDS011;54893;49.864;19.084;2022-07-30T15:04:00;18.27;;;10.80;;
68108;SDS011;54893;49.864;19.084;2022-07-30T15:09:01;13.63;;;9.20;;
68108;SDS011;54893;49.864;19.084;2022-07-30T15:14:01;12.30;;;7.90;;
68108;SDS011;54893;49.864;19.084;2022-07-30T15:19:01;12.23;;;8.27;;
68108;SDS011;54893;49.864;19.084;2022-07-30T15:24:03;11.43;;;7.68;;
68108;SDS011;54893;49.864;19.084;2022-07-30T15:29:04;11.48;;;7.80;;
68108;SDS011;54893;49.864;19.084;2022-07-30T15:34:05;12.43;;;8.70;;
68108;SDS011;54893;49.864;19.084;2022-07-30T15:39:09;15.17;;;9.83;;
68108;SDS011;54893;49.864;19.084;2022-07-30T15:44:10;12.90;;;8.15;;
68108;SDS011;54893;49.864;19.084;2022-07-30T15:49:12;13.37;;;9.23;;
68108;SDS011;54893;49.864;19.084;2022-07-30T15:54:13;12.70;;;8.30;;
68108;SDS011;54893;49.864;19.084;2022-07-30T15:59:14;11.05;;;7.60;;
68108;SDS011;54893;49.864;19.084;2022-07-30T16:04:15;11.80;;;7.70;;
68108;SDS011;54893;49.864;19.084;2022-07-30T16:09:15;15.83;;;11.27;;
68108;SDS011;54893;49.864;19.084;2022-07-30T16:14:16;17.47;;;10.83;;
68108;SDS011;54893;49.864;19.084;2022-07-30T16:19:16;17.77;;;10.83;;
68108;SDS011;54893;49.864;19.084;2022-07-30T16:24:17;21.23;;;12.63;;
68108;SDS011;54893;49.864;19.084;2022-07-30T16:29:17;22.60;;;14.47;;
68108;SDS011;54893;49.864;19.084;2022-07-30T16:34:18;33.00;;;17.70;;
68108;SDS011;54893;49.864;19.084;2022-07-30T16:39:18;35.50;;;20.10;;
68108;SDS011;54893;49.864;19.084;2022-07-30T16:44:18;36.20;;;21.50;;
68108;SDS011;54893;49.864;19.084;2022-07-30T16:49:19;33.87;;;19.10;;
68108;SDS011;54893;49.864;19.084;2022-07-30T16:54:19;36.00;;;22.10;;
68108;SDS011;54893;49.864;19.084;2022-07-30T16:59:20;36.80;;;21.23;;
68108;SDS011;54893;49.864;19.084;2022-07-30T17:04:21;38.03;;;27.13;;
68108;SDS011;54893;49.864;19.084;2022-07-30T17:09:21;40.67;;;23.60;;
68108;SDS011;54893;49.864;19.084;2022-07-30T17:14:22;37.70;;;22.25;;
68108;SDS011;54893;49.864;19.084;2022-07-30T17:19:22;41.47;;;26.60;;
68108;SDS011;54893;49.864;19.084;2022-07-30T17:24:22;46.23;;;26.33;;
68108;SDS011;54893;49.864;19.084;2022-07-30T17:29:23;51.47;;;29.53;;
68108;SDS011;54893;49.864;19.084;2022-07-30T17:34:23;51.43;;;27.97;;
68108;SDS011;54893;49.864;19.084;2022-07-30T17:39:23;44.77;;;27.93;;
68108;SDS011;54893;49.864;19.084;2022-07-30T17:44:24;46.65;;;26.45;;
68108;SDS011;54893;49.864;19.084;2022-07-30T17:49:24;45.43;;;27.13;;
68108;SDS011;54893;49.864;19.084;2022-07-30T17:54:25;40.10;;;24.50;;
68108;SDS011;54893;49.864;19.084;2022-07-30T17:59:25;39.13;;;24.17;;
68108;SDS011;54893;49.864;19.084;2022-07-30T18:04:25;27.90;;;18.70;;
68108;SDS011;54893;49.864;19.084;2022-07-30T18:09:26;22.92;;;17.10;;
68108;SDS011;54893;49.864;19.084;2022-07-30T18:14:26;24.53;;;15.63;;
68108;SDS011;54893;49.864;19.084;2022-07-30T18:19:27;26.13;;;16.33;;
68108;SDS011;54893;49.864;19.084;2022-07-30T18:24:27;24.63;;;14.90;;
68108;SDS011;54893;49.864;19.084;2022-07-30T18:29:27;21.67;;;15.02;;
68108;SDS011;54893;49.864;19.084;2022-07-30T18:34:28;21.05;;;14.43;;
68108;SDS011;54893;49.864;19.084;2022-07-30T18:39:29;24.50;;;18.40;;
68108;SDS011;54893;49.864;19.084;2022-07-30T18:44:29;25.07;;;18.50;;
68108;SDS011;54893;49.864;19.084;2022-07-30T18:49:30;20.13;;;14.77;;
68108;SDS011;54893;49.864;19.084;2022-07-30T18:54:30;23.27;;;16.83;;
68108;SDS011;54893;49.864;19.084;2022-07-30T18:59:30;26.30;;;16.87;;
68108;SDS011;54893;49.864;19.084;2022-07-30T19:04:31;27.23;;;17.83;;
68108;SDS011;54893;49.864;19.084;2022-07-30T19:09:32;31.47;;;19.77;;
68108;SDS011;54893;49.864;19.084;2022-07-30T19:14:32;37.00;;;21.03;;
68108;SDS011;54893;49.864;19.084;2022-07-30T19:19:33;36.43;;;20.30;;
68108;SDS011;54893;49.864;19.084;2022-07-30T19:24:33;45.90;;;24.33;;
68108;SDS011;54893;49.864;19.084;2022-07-30T19:29:34;41.80;;;25.20;;
68108;SDS011;54893;49.864;19.084;2022-07-30T19:34:35;48.22;;;27.90;;
68108;SDS011;54893;49.864;19.084;2022-07-30T19:39:36;49.70;;;25.93;;
68108;SDS011;54893;49.864;19.084;2022-07-30T19:44:36;54.33;;;30.07;;
68108;SDS011;54893;49.864;19.084;2022-07-30T19:49:37;53.75;;;26.75;;
68108;SDS011;54893;49.864;19.084;2022-07-30T19:54:39;54.70;;;29.50;;
68108;SDS011;54893;49.864;19.084;2022-07-30T19:59:40;55.13;;;28.27;;
68108;SDS011;54893;49.864;19.084;2022-07-30T20:04:40;53.37;;;27.60;;
68108;SDS011;54893;49.864;19.084;2022-07-30T20:09:41;74.25;;;31.83;;
68108;SDS011;54893;49.864;19.084;2022-07-30T20:14:43;76.60;;;31.47;;
68108;SDS011;54893;49.864;19.084;2022-07-30T20:19:43;80.23;;;35.00;;
68108;SDS011;54893;49.864;19.084;2022-07-30T20:24:44;86.30;;;34.87;;
68108;SDS011;54893;49.864;19.084;2022-07-30T20:29:47;91.13;;;41.47;;
68108;SDS011;54893;49.864;19.084;2022-07-30T20:34:47;76.23;;;35.37;;
68108;SDS011;54893;49.864;19.084;2022-07-30T20:39:48;85.77;;;36.63;;
68108;SDS011;54893;49.864;19.084;2022-07-30T20:44:49;87.13;;;36.00;;
68108;SDS011;54893;49.864;19.084;2022-07-30T20:49:52;92.70;;;41.47;;
68108;SDS011;54893;49.864;19.084;2022-07-30T20:54:52;101.07;;;36.47;;
68108;SDS011;54893;49.864;19.084;2022-07-30T20:59:52;91.03;;;35.53;;
68108;SDS011;54893;49.864;19.084;2022-07-30T21:04:53;89.60;;;35.93;;
68108;SDS011;54893;49.864;19.084;2022-07-30T21:09:53;90.30;;;38.20;;
68108;SDS011;54893;49.864;19.084;2022-07-30T21:14:54;91.95;;;34.63;;
68108;SDS011;54893;49.864;19.084;2022-07-30T21:19:57;77.07;;;31.52;;
68108;SDS011;54893;49.864;19.084;2022-07-30T21:24:57;89.07;;;36.57;;
68108;SDS011;54893;49.864;19.084;2022-07-30T21:29:57;74.73;;;31.43;;
68108;SDS011;54893;49.864;19.084;2022-07-30T21:34:58;75.17;;;32.53;;
68108;SDS011;54893;49.864;19.084;2022-07-30T21:40:00;78.57;;;37.33;;
68108;SDS011;54893;49.864;19.084;2022-07-30T21:45:00;74.40;;;30.07;;
68108;SDS011;54893;49.864;19.084;2022-07-30T21:50:00;76.00;;;32.73;;
68108;SDS011;54893;49.864;19.084;2022-07-30T21:55:01;74.90;;;30.30;;
68108;SDS011;54893;49.864;19.084;2022-07-30T22:00:05;73.67;;;28.47;;
68108;SDS011;54893;49.864;19.084;2022-07-30T22:05:09;73.13;;;29.02;;
68108;SDS011;54893;49.864;19.084;2022-07-30T22:10:09;80.43;;;32.90;;
68108;SDS011;54893;49.864;19.084;2022-07-30T22:15:09;67.23;;;26.00;;
68108;SDS011;54893;49.864;19.084;2022-07-30T22:20:10;71.97;;;25.87;;
68108;SDS011;54893;49.864;19.084;2022-07-30T22:25:12;69.07;;;25.25;;
68108;SDS011;54893;49.864;19.084;2022-07-30T22:30:12;72.70;;;23.95;;
68108;SDS011;54893;49.864;19.084;2022-07-30T22:35:13;66.57;;;21.53;;
68108;SDS011;54893;49.864;19.084;2022-07-30T22:40:14;63.47;;;24.77;;
68108;SDS011;54893;49.864;19.084;2022-07-30T22:45:15;67.17;;;22.43;;
68108;SDS011;54893;49.864;19.084;2022-07-30T22:50:15;72.27;;;20.67;;
68108;SDS011;54893;49.864;19.084;2022-07-30T22:55:15;54.43;;;20.63;;
68108;SDS011;54893;49.864;19.084;2022-07-30T23:00:16;53.37;;;19.43;;
68108;SDS011;54893;49.864;19.084;2022-07-30T23:05:18;53.28;;;20.25;;
68108;SDS011;54893;49.864;19.084;2022-07-30T23:10:18;44.67;;;17.63;;
68108;SDS011;54893;49.864;19.084;2022-07-30T23:15:19;38.77;;;15.30;;
68108;SDS011;54893;49.864;19.084;2022-07-30T23:20:20;30.48;;;13.95;;
68108;SDS011;54893;49.864;19.084;2022-07-30T23:25:21;22.70;;;10.53;;
68108;SDS011;54893;49.864;19.084;2022-07-30T23:30:21;20.10;;;10.37;;
68108;SDS011;54893;49.864;19.084;2022-07-30T23:35:23;22.90;;;10.13;;
68108;SDS011;54893;49.864;19.084;2022-07-30T23:40:23;19.77;;;9.50;;
68108;SDS011;54893;49.864;19.084;2022-07-30T23:45:24;16.33;;;9.23;;
68108;SDS011;54893;49.864;19.084;2022-07-30T23:50:24;15.13;;;8.40;;
68108;SDS011;54893;49.864;19.084;2022-07-30T23:55:25;16.07;;;9.30;;
